DZH403 LGMK-DAAG
Flight info
| Callsign | DZH403 |
|---|---|
| Flight time | N/A |
| Altitude | 34000 |
| Route | DIDIS UR32 MIL UP32 MONUV UN45 ROTAS/N0458F300 N45 BINKO M978 GZO M980 DEXOL M726 NEVNA L30 OMENI UL874 DIMAO UZ888 BABOR UA31 ALR |
| Aircraft | A321/M-SDE3FGHIRWY/LB1 |
Departure
| Time | N/A |
|---|---|
| Airport | Mykonos Island National Airport (LGMK) |
Arrival
| Time | 2026-04-30 01:03 |
|---|---|
| Airport | Houari Boumediene Airport (DAAG) |
| Time | Latitude | Longitude | Altitude | Speed | Heading |
|---|---|---|---|---|---|
| 2026-04-29 23:35 | 36.04643 | 12.85825 | 34013 ft | 379 kts | 270° |
| 2026-04-29 23:36 | 36.04650 | 12.79287 | 34037 ft | 385 kts | 270° |
| 2026-04-29 23:36 | 36.04653 | 12.72616 | 34033 ft | 393 kts | 270° |
| 2026-04-29 23:37 | 36.04645 | 12.65804 | 34032 ft | 395 kts | 270° |
| 2026-04-29 23:37 | 36.04641 | 12.59061 | 34032 ft | 395 kts | 270° |
| 2026-04-29 23:38 | 36.04639 | 12.52280 | 34032 ft | 395 kts | 270° |
| 2026-04-29 23:38 | 36.04631 | 12.45493 | 34033 ft | 395 kts | 270° |
| 2026-04-29 23:39 | 36.04617 | 12.38709 | 34037 ft | 395 kts | 270° |
| 2026-04-29 23:39 | 36.04593 | 12.31916 | 34033 ft | 396 kts | 270° |
| 2026-04-29 23:40 | 36.04569 | 12.25102 | 34033 ft | 396 kts | 270° |
| 2026-04-29 23:40 | 36.04546 | 12.18303 | 34035 ft | 396 kts | 270° |
| 2026-04-29 23:41 | 36.04513 | 12.11493 | 34036 ft | 396 kts | 270° |
| 2026-04-29 23:41 | 36.04477 | 12.04677 | 34036 ft | 396 kts | 270° |
| 2026-04-29 23:42 | 36.04445 | 11.97880 | 34031 ft | 396 kts | 270° |
| 2026-04-29 23:42 | 36.04405 | 11.91080 | 34031 ft | 396 kts | 270° |
| 2026-04-29 23:43 | 36.04355 | 11.84277 | 34027 ft | 395 kts | 270° |
| 2026-04-29 23:43 | 36.04305 | 11.77479 | 34028 ft | 396 kts | 270° |
| 2026-04-29 23:44 | 36.04253 | 11.70689 | 34032 ft | 396 kts | 270° |
| 2026-04-29 23:44 | 36.04202 | 11.63887 | 34024 ft | 396 kts | 270° |
| 2026-04-29 23:45 | 36.04140 | 11.57072 | 34024 ft | 396 kts | 269° |
| 2026-04-29 23:45 | 36.04070 | 11.50261 | 34025 ft | 397 kts | 270° |
| 2026-04-29 23:46 | 36.04184 | 11.43450 | 34030 ft | 397 kts | 272° |
| 2026-04-29 23:46 | 36.04482 | 11.36639 | 34032 ft | 397 kts | 273° |
| 2026-04-29 23:47 | 36.04764 | 11.29828 | 34038 ft | 397 kts | 272° |
| 2026-04-29 23:47 | 36.05003 | 11.23007 | 34028 ft | 398 kts | 272° |
| 2026-04-29 23:48 | 36.05225 | 11.16168 | 34027 ft | 398 kts | 272° |
| 2026-04-29 23:48 | 36.05445 | 11.09339 | 34028 ft | 398 kts | 272° |
| 2026-04-29 23:49 | 36.05668 | 11.02530 | 34032 ft | 399 kts | 272° |
| 2026-04-29 23:49 | 36.05889 | 10.95679 | 34034 ft | 399 kts | 272° |
| 2026-04-29 23:50 | 36.06098 | 10.88828 | 34037 ft | 399 kts | 272° |
| 2026-04-29 23:51 | 36.06411 | 10.78543 | 34022 ft | 399 kts | 272° |
| 2026-04-29 23:51 | 36.06612 | 10.71696 | 34010 ft | 399 kts | 272° |
| 2026-04-29 23:52 | 36.06809 | 10.64853 | 33998 ft | 399 kts | 272° |
| 2026-04-29 23:52 | 36.07000 | 10.58007 | 33986 ft | 399 kts | 272° |
| 2026-04-29 23:53 | 36.07191 | 10.51152 | 33976 ft | 400 kts | 272° |
| 2026-04-29 23:53 | 36.07454 | 10.44288 | 33972 ft | 400 kts | 277° |
| 2026-04-29 23:54 | 36.08944 | 10.37651 | 33973 ft | 402 kts | 286° |
| 2026-04-29 23:54 | 36.10725 | 10.31090 | 34031 ft | 402 kts | 286° |
| 2026-04-29 23:55 | 36.12497 | 10.24524 | 34035 ft | 403 kts | 286° |
| 2026-04-29 23:55 | 36.14250 | 10.17945 | 34031 ft | 403 kts | 286° |
| 2026-04-29 23:56 | 36.15636 | 10.11260 | 34035 ft | 401 kts | 277° |
| 2026-04-29 23:56 | 36.16461 | 10.04446 | 34038 ft | 401 kts | 278° |
| 2026-04-29 23:57 | 36.17158 | 9.98771 | 34042 ft | 401 kts | 278° |
| 2026-04-29 23:57 | 36.17999 | 9.91947 | 34042 ft | 401 kts | 278° |
| 2026-04-29 23:58 | 36.18968 | 9.84008 | 34043 ft | 401 kts | 278° |
| 2026-04-29 23:58 | 36.19657 | 9.78288 | 34042 ft | 402 kts | 278° |
| 2026-04-29 23:59 | 36.20478 | 9.71437 | 34043 ft | 402 kts | 278° |
| 2026-04-29 23:59 | 36.21298 | 9.64599 | 34041 ft | 402 kts | 278° |
| 2026-04-30 00:00 | 36.22121 | 9.57751 | 34039 ft | 402 kts | 278° |
| 2026-04-30 00:00 | 36.22936 | 9.50892 | 34042 ft | 402 kts | 278° |
| 2026-04-30 00:01 | 36.23743 | 9.44084 | 34032 ft | 403 kts | 278° |
| 2026-04-30 00:01 | 36.24549 | 9.37210 | 34022 ft | 403 kts | 277° |
| 2026-04-30 00:02 | 36.25369 | 9.30328 | 34023 ft | 404 kts | 279° |
| 2026-04-30 00:02 | 36.26448 | 9.23497 | 34023 ft | 405 kts | 281° |
| 2026-04-30 00:03 | 36.27650 | 9.16675 | 34025 ft | 405 kts | 281° |
| 2026-04-30 00:03 | 36.28817 | 9.09853 | 34027 ft | 405 kts | 281° |
| 2026-04-30 00:04 | 36.29927 | 9.03008 | 34018 ft | 405 kts | 280° |
| 2026-04-30 00:04 | 36.31024 | 8.96147 | 34018 ft | 406 kts | 280° |
| 2026-04-30 00:05 | 36.32133 | 8.89286 | 34009 ft | 406 kts | 280° |
| 2026-04-30 00:05 | 36.33243 | 8.82419 | 34011 ft | 406 kts | 280° |
| 2026-04-30 00:06 | 36.34349 | 8.75548 | 34010 ft | 406 kts | 280° |
| 2026-04-30 00:06 | 36.35445 | 8.68683 | 33996 ft | 406 kts | 280° |
| 2026-04-30 00:07 | 36.36543 | 8.61792 | 33998 ft | 407 kts | 280° |
| 2026-04-30 00:07 | 36.37628 | 8.54948 | 34000 ft | 407 kts | 280° |
| 2026-04-30 00:08 | 36.38719 | 8.48052 | 34002 ft | 408 kts | 280° |
| 2026-04-30 00:08 | 36.39805 | 8.41142 | 34006 ft | 408 kts | 280° |
| 2026-04-30 00:09 | 36.40611 | 8.34193 | 33989 ft | 407 kts | 272° |
| 2026-04-30 00:09 | 36.40866 | 8.27179 | 33987 ft | 408 kts | 272° |
| 2026-04-30 00:10 | 36.41120 | 8.20142 | 33993 ft | 408 kts | 272° |
| 2026-04-30 00:10 | 36.41368 | 8.13098 | 33992 ft | 409 kts | 272° |
| 2026-04-30 00:11 | 36.41622 | 8.06048 | 33996 ft | 409 kts | 272° |
| 2026-04-30 00:11 | 36.41871 | 7.98987 | 33996 ft | 410 kts | 272° |
| 2026-04-30 00:12 | 36.42117 | 7.91913 | 34005 ft | 410 kts | 272° |
| 2026-04-30 00:12 | 36.42355 | 7.84837 | 34003 ft | 410 kts | 272° |
| 2026-04-30 00:13 | 36.42588 | 7.77760 | 34005 ft | 411 kts | 272° |
| 2026-04-30 00:13 | 36.42816 | 7.70679 | 34008 ft | 410 kts | 272° |
| 2026-04-30 00:14 | 36.43046 | 7.63597 | 34011 ft | 410 kts | 272° |
| 2026-04-30 00:14 | 36.43271 | 7.56518 | 34005 ft | 410 kts | 272° |
| 2026-04-30 00:15 | 36.43488 | 7.49440 | 34018 ft | 410 kts | 272° |
| 2026-04-30 00:15 | 36.43695 | 7.42468 | 34014 ft | 396 kts | 272° |
| 2026-04-30 00:16 | 36.43895 | 7.35670 | 34021 ft | 393 kts | 272° |
| 2026-04-30 00:16 | 36.44088 | 7.28904 | 34006 ft | 392 kts | 272° |
| 2026-04-30 00:17 | 36.44286 | 7.22131 | 34010 ft | 392 kts | 272° |
| 2026-04-30 00:17 | 36.44477 | 7.15366 | 34007 ft | 392 kts | 272° |
| 2026-04-30 00:18 | 36.44656 | 7.08598 | 34008 ft | 392 kts | 272° |
| 2026-04-30 00:18 | 36.44836 | 7.01824 | 34010 ft | 392 kts | 272° |
| 2026-04-30 00:19 | 36.45006 | 6.95099 | 34025 ft | 392 kts | 272° |
| 2026-04-30 00:19 | 36.45183 | 6.88288 | 34036 ft | 392 kts | 272° |
| 2026-04-30 00:20 | 36.45356 | 6.81515 | 34057 ft | 392 kts | 272° |
| 2026-04-30 00:20 | 36.45525 | 6.74752 | 34058 ft | 392 kts | 272° |
| 2026-04-30 00:21 | 36.45685 | 6.67983 | 34069 ft | 392 kts | 272° |
| 2026-04-30 00:21 | 36.45844 | 6.61209 | 34061 ft | 392 kts | 272° |
| 2026-04-30 00:22 | 36.46003 | 6.54449 | 34030 ft | 392 kts | 272° |
| 2026-04-30 00:22 | 36.46148 | 6.47680 | 34042 ft | 392 kts | 272° |
| 2026-04-30 00:23 | 36.46290 | 6.40905 | 34033 ft | 392 kts | 272° |
| 2026-04-30 00:23 | 36.46435 | 6.34144 | 34028 ft | 391 kts | 272° |
| 2026-04-30 00:24 | 36.46570 | 6.27386 | 34031 ft | 391 kts | 272° |
| 2026-04-30 00:24 | 36.46676 | 6.20671 | 34027 ft | 391 kts | 272° |
| 2026-04-30 00:25 | 36.46795 | 6.13871 | 34034 ft | 391 kts | 272° |
| 2026-04-30 00:25 | 36.46924 | 6.07153 | 34024 ft | 392 kts | 272° |
| 2026-04-30 00:26 | 36.47051 | 6.00389 | 34028 ft | 391 kts | 272° |
| 2026-04-30 00:26 | 36.47178 | 5.93636 | 34043 ft | 391 kts | 272° |
| 2026-04-30 00:27 | 36.47296 | 5.86875 | 34037 ft | 391 kts | 272° |
| 2026-04-30 00:27 | 36.47427 | 5.80122 | 34029 ft | 391 kts | 272° |
| 2026-04-30 00:28 | 36.47546 | 5.73367 | 34030 ft | 391 kts | 272° |
| 2026-04-30 00:28 | 36.47644 | 5.66609 | 34029 ft | 391 kts | 271° |
| 2026-04-30 00:29 | 36.47738 | 5.59851 | 34028 ft | 391 kts | 271° |
| 2026-04-30 00:29 | 36.47839 | 5.53087 | 34033 ft | 391 kts | 271° |
| 2026-04-30 00:30 | 36.47932 | 5.46326 | 34035 ft | 391 kts | 271° |
| 2026-04-30 00:30 | 36.48023 | 5.39560 | 34039 ft | 392 kts | 271° |
| 2026-04-30 00:31 | 36.48109 | 5.32777 | 33999 ft | 394 kts | 271° |
| 2026-04-30 00:31 | 36.48148 | 5.29350 | 33024 ft | 402 kts | 271° |
| 2026-04-30 00:31 | 36.48190 | 5.25810 | 31802 ft | 414 kts | 271° |
| 2026-04-30 00:31 | 36.48230 | 5.22272 | 31389 ft | 403 kts | 271° |
| 2026-04-30 00:32 | 36.48268 | 5.18831 | 30908 ft | 395 kts | 271° |
| 2026-04-30 00:32 | 36.48303 | 5.15441 | 30383 ft | 390 kts | 271° |
| 2026-04-30 00:32 | 36.48336 | 5.12090 | 29829 ft | 387 kts | 271° |
| 2026-04-30 00:32 | 36.48367 | 5.08762 | 29320 ft | 383 kts | 271° |
| 2026-04-30 00:33 | 36.48399 | 5.05474 | 28829 ft | 378 kts | 271° |
| 2026-04-30 00:33 | 36.48434 | 5.02223 | 28315 ft | 375 kts | 272° |
| 2026-04-30 00:33 | 36.48716 | 4.99017 | 27783 ft | 372 kts | 281° |
| 2026-04-30 00:33 | 36.49366 | 4.95919 | 27258 ft | 370 kts | 285° |
| 2026-04-30 00:34 | 36.50063 | 4.92854 | 26744 ft | 368 kts | 284° |
| 2026-04-30 00:34 | 36.50750 | 4.89797 | 26221 ft | 366 kts | 284° |
| 2026-04-30 00:34 | 36.51429 | 4.86752 | 25719 ft | 365 kts | 284° |
| 2026-04-30 00:34 | 36.52103 | 4.83719 | 25212 ft | 364 kts | 284° |
| 2026-04-30 00:35 | 36.52776 | 4.80683 | 24717 ft | 364 kts | 284° |
| 2026-04-30 00:35 | 36.53437 | 4.77697 | 24236 ft | 363 kts | 284° |
| 2026-04-30 00:35 | 36.54109 | 4.74672 | 23757 ft | 363 kts | 284° |
| 2026-04-30 00:35 | 36.54780 | 4.71649 | 23225 ft | 362 kts | 284° |
| 2026-04-30 00:36 | 36.55444 | 4.68645 | 22783 ft | 359 kts | 284° |
| 2026-04-30 00:36 | 36.56106 | 4.65656 | 22344 ft | 356 kts | 284° |
| 2026-04-30 00:36 | 36.56760 | 4.62700 | 21922 ft | 353 kts | 284° |
| 2026-04-30 00:36 | 36.57407 | 4.59764 | 21499 ft | 350 kts | 284° |
| 2026-04-30 00:37 | 36.58046 | 4.56856 | 21096 ft | 348 kts | 284° |
| 2026-04-30 00:37 | 36.58677 | 4.53971 | 20689 ft | 345 kts | 284° |
| 2026-04-30 00:37 | 36.59306 | 4.51089 | 20270 ft | 344 kts | 284° |
| 2026-04-30 00:37 | 36.59934 | 4.48225 | 19859 ft | 342 kts | 284° |
| 2026-04-30 00:38 | 36.60560 | 4.45373 | 19437 ft | 341 kts | 284° |
| 2026-04-30 00:38 | 36.61184 | 4.42528 | 19015 ft | 341 kts | 284° |
| 2026-04-30 00:38 | 36.61804 | 4.39682 | 18598 ft | 340 kts | 284° |
| 2026-04-30 00:38 | 36.62423 | 4.36844 | 18140 ft | 339 kts | 284° |
| 2026-04-30 00:39 | 36.63039 | 4.34019 | 17689 ft | 337 kts | 284° |
| 2026-04-30 00:39 | 36.63649 | 4.31214 | 17255 ft | 334 kts | 284° |
| 2026-04-30 00:39 | 36.64255 | 4.28427 | 16826 ft | 332 kts | 284° |
| 2026-04-30 00:39 | 36.64854 | 4.25662 | 16406 ft | 331 kts | 284° |
| 2026-04-30 00:40 | 36.65453 | 4.22900 | 15977 ft | 329 kts | 284° |
| 2026-04-30 00:40 | 36.66045 | 4.20166 | 15558 ft | 326 kts | 284° |
| 2026-04-30 00:40 | 36.66632 | 4.17440 | 15127 ft | 325 kts | 283° |
| 2026-04-30 00:40 | 36.67217 | 4.14718 | 14712 ft | 324 kts | 283° |
| 2026-04-30 00:41 | 36.67803 | 4.12011 | 14288 ft | 323 kts | 283° |
| 2026-04-30 00:41 | 36.68388 | 4.09313 | 13858 ft | 323 kts | 283° |
| 2026-04-30 00:41 | 36.68970 | 4.06614 | 13400 ft | 322 kts | 283° |
| 2026-04-30 00:41 | 36.69548 | 4.03933 | 12968 ft | 320 kts | 283° |
| 2026-04-30 00:42 | 36.70124 | 4.01261 | 12527 ft | 318 kts | 283° |
| 2026-04-30 00:42 | 36.70694 | 3.98605 | 12104 ft | 317 kts | 283° |
| 2026-04-30 00:42 | 36.71264 | 3.95947 | 11678 ft | 317 kts | 283° |
| 2026-04-30 00:42 | 36.71832 | 3.93302 | 11226 ft | 316 kts | 283° |
| 2026-04-30 00:43 | 36.72400 | 3.90653 | 10778 ft | 316 kts | 283° |
| 2026-04-30 00:43 | 36.72962 | 3.88023 | 10474 ft | 311 kts | 283° |
| 2026-04-30 00:43 | 36.73327 | 3.86314 | 10414 ft | 303 kts | 283° |
| 2026-04-30 00:43 | 36.74033 | 3.82993 | 10188 ft | 292 kts | 283° |
| 2026-04-30 00:44 | 36.74374 | 3.81382 | 10121 ft | 287 kts | 283° |
| 2026-04-30 00:44 | 36.74885 | 3.78971 | 10067 ft | 288 kts | 283° |
| 2026-04-30 00:44 | 36.75398 | 3.76553 | 9878 ft | 290 kts | 283° |
| 2026-04-30 00:44 | 36.75916 | 3.74113 | 9244 ft | 290 kts | 283° |
| 2026-04-30 00:45 | 36.76429 | 3.71700 | 8711 ft | 287 kts | 283° |
| 2026-04-30 00:45 | 36.77098 | 3.68535 | 8031 ft | 283 kts | 283° |
| 2026-04-30 00:45 | 36.77435 | 3.66937 | 7699 ft | 282 kts | 283° |
| 2026-04-30 00:45 | 36.78091 | 3.63820 | 7036 ft | 279 kts | 283° |
| 2026-04-30 00:46 | 36.78425 | 3.62238 | 6698 ft | 280 kts | 283° |
| 2026-04-30 00:46 | 36.78892 | 3.59867 | 6189 ft | 281 kts | 276° |
| 2026-04-30 00:46 | 36.78851 | 3.57479 | 5675 ft | 274 kts | 255° |
| 2026-04-30 00:46 | 36.78162 | 3.55307 | 5183 ft | 268 kts | 236° |
| 2026-04-30 00:47 | 36.77003 | 3.53514 | 4692 ft | 265 kts | 227° |
| 2026-04-30 00:47 | 36.75785 | 3.51796 | 4205 ft | 265 kts | 227° |
| 2026-04-30 00:47 | 36.74557 | 3.50061 | 3718 ft | 267 kts | 228° |
| 2026-04-30 00:47 | 36.73351 | 3.48356 | 3573 ft | 256 kts | 228° |
| 2026-04-30 00:48 | 36.72207 | 3.46737 | 3525 ft | 243 kts | 228° |
| 2026-04-30 00:48 | 36.71116 | 3.45190 | 3437 ft | 232 kts | 228° |
| 2026-04-30 00:48 | 36.70085 | 3.43731 | 3362 ft | 218 kts | 228° |
| 2026-04-30 00:48 | 36.69156 | 3.42292 | 3266 ft | 212 kts | 239° |
| 2026-04-30 00:49 | 36.68674 | 3.40590 | 3105 ft | 206 kts | 262° |
| 2026-04-30 00:49 | 36.68668 | 3.38873 | 2873 ft | 190 kts | 271° |
| 2026-04-30 00:49 | 36.68709 | 3.37308 | 2633 ft | 174 kts | 271° |
| 2026-04-30 00:49 | 36.68746 | 3.35888 | 2413 ft | 158 kts | 271° |
| 2026-04-30 00:50 | 36.68780 | 3.34531 | 2198 ft | 152 kts | 271° |
| 2026-04-30 00:50 | 36.68812 | 3.33251 | 2005 ft | 149 kts | 271° |
| 2026-04-30 00:50 | 36.68844 | 3.31967 | 1811 ft | 148 kts | 271° |
| 2026-04-30 00:50 | 36.68876 | 3.30694 | 1618 ft | 147 kts | 271° |
| 2026-04-30 00:51 | 36.68907 | 3.29426 | 1425 ft | 146 kts | 270° |
| 2026-04-30 00:51 | 36.68938 | 3.28170 | 1232 ft | 145 kts | 270° |
| 2026-04-30 00:51 | 36.68970 | 3.26918 | 1036 ft | 144 kts | 271° |
| 2026-04-30 00:51 | 36.69006 | 3.25673 | 836 ft | 144 kts | 271° |
| 2026-04-30 00:52 | 36.69031 | 3.24429 | 625 ft | 143 kts | 271° |
| 2026-04-30 00:52 | 36.69046 | 3.23191 | 428 ft | 143 kts | 271° |
| 2026-04-30 00:52 | 36.69079 | 3.21956 | 242 ft | 142 kts | 272° |
| 2026-04-30 00:52 | 36.69119 | 3.20728 | 82 ft | 141 kts | 272° |
| 2026-04-30 00:53 | 36.69149 | 3.19549 | 237 ft | 144 kts | 272° |
| 2026-04-30 00:53 | 36.69227 | 3.18202 | 748 ft | 164 kts | 278° |
| 2026-04-30 00:53 | 36.69590 | 3.16836 | 1244 ft | 169 kts | 301° |
| 2026-04-30 00:53 | 36.70422 | 3.15814 | 1800 ft | 170 kts | 322° |
| 2026-04-30 00:54 | 36.71529 | 3.15119 | 2016 ft | 192 kts | 351° |
| 2026-04-30 00:54 | 36.72890 | 3.15392 | 2163 ft | 211 kts | 27° |
| 2026-04-30 00:54 | 36.74023 | 3.16647 | 2404 ft | 225 kts | 50° |
| 2026-04-30 00:54 | 36.75017 | 3.18178 | 2942 ft | 229 kts | 52° |
| 2026-04-30 00:55 | 36.76008 | 3.19744 | 3166 ft | 231 kts | 52° |
| 2026-04-30 00:55 | 36.77009 | 3.21319 | 3206 ft | 231 kts | 52° |
| 2026-04-30 00:55 | 36.79000 | 3.24460 | 3209 ft | 231 kts | 52° |
| 2026-04-30 00:56 | 36.80000 | 3.26033 | 3208 ft | 231 kts | 52° |
| 2026-04-30 00:56 | 36.80996 | 3.27600 | 3207 ft | 231 kts | 52° |
| 2026-04-30 00:56 | 36.81987 | 3.29167 | 3205 ft | 230 kts | 52° |
| 2026-04-30 00:56 | 36.82982 | 3.30739 | 3204 ft | 231 kts | 52° |
| 2026-04-30 00:57 | 36.83978 | 3.32308 | 3204 ft | 231 kts | 52° |
| 2026-04-30 00:57 | 36.84730 | 3.34049 | 3193 ft | 229 kts | 79° |
| 2026-04-30 00:57 | 36.84633 | 3.35995 | 3201 ft | 227 kts | 111° |
| 2026-04-30 00:57 | 36.83702 | 3.37542 | 3205 ft | 225 kts | 145° |
| 2026-04-30 00:58 | 36.82291 | 3.38376 | 3213 ft | 225 kts | 160° |
| 2026-04-30 00:58 | 36.80795 | 3.38936 | 3199 ft | 225 kts | 174° |
| 2026-04-30 00:58 | 36.79278 | 3.38614 | 3201 ft | 225 kts | 207° |
| 2026-04-30 00:58 | 36.77986 | 3.37496 | 3212 ft | 227 kts | 212° |
| 2026-04-30 00:59 | 36.76510 | 3.36875 | 3213 ft | 226 kts | 187° |
| 2026-04-30 00:59 | 36.74970 | 3.36704 | 3204 ft | 221 kts | 184° |
| 2026-04-30 00:59 | 36.73488 | 3.36592 | 3124 ft | 207 kts | 183° |
| 2026-04-30 00:59 | 36.72086 | 3.36454 | 3011 ft | 192 kts | 190° |
| 2026-04-30 01:00 | 36.70866 | 3.35923 | 2715 ft | 186 kts | 208° |
| 2026-04-30 01:00 | 36.69856 | 3.34938 | 2330 ft | 184 kts | 228° |
| 2026-04-30 01:00 | 36.69163 | 3.33590 | 2144 ft | 186 kts | 246° |
| 2026-04-30 01:00 | 36.68864 | 3.32092 | 1851 ft | 173 kts | 265° |
| 2026-04-30 01:01 | 36.68880 | 3.30628 | 1626 ft | 161 kts | 271° |
| 2026-04-30 01:01 | 36.68912 | 3.29276 | 1405 ft | 157 kts | 271° |
| 2026-04-30 01:01 | 36.68945 | 3.27931 | 1195 ft | 154 kts | 270° |
| 2026-04-30 01:01 | 36.68978 | 3.26600 | 986 ft | 153 kts | 270° |
| 2026-04-30 01:02 | 36.69016 | 3.25276 | 766 ft | 153 kts | 271° |
| 2026-04-30 01:02 | 36.69054 | 3.23957 | 518 ft | 152 kts | 271° |
| 2026-04-30 01:02 | 36.69075 | 3.22645 | 322 ft | 151 kts | 271° |
| 2026-04-30 01:02 | 36.69105 | 3.21333 | 193 ft | 151 kts | 271° |
| 2026-04-30 01:03 | 36.69137 | 3.20035 | 82 ft | 144 kts | 273° |
| 2026-04-30 01:03 | 36.69159 | 3.19014 | 79 ft | 78 kts | 272° |
| 2026-04-30 01:03 | 36.69172 | 3.18512 | 78 ft | 40 kts | 271° |
| 2026-04-30 01:03 | 36.69217 | 3.18418 | 73 ft | 7 kts | 1° |
| 2026-04-30 01:04 | 36.69310 | 3.18438 | 70 ft | 18 kts | 27° |
| 2026-04-30 01:04 | 36.69339 | 3.18529 | 68 ft | 11 kts | 92° |
| 2026-04-30 01:04 | 36.69336 | 3.18630 | 71 ft | 12 kts | 92° |
| 2026-04-30 01:04 | 36.69333 | 3.18739 | 64 ft | 13 kts | 91° |
| 2026-04-30 01:05 | 36.69329 | 3.18867 | 71 ft | 16 kts | 91° |
| 2026-04-30 01:05 | 36.69326 | 3.19007 | 71 ft | 16 kts | 91° |
| 2026-04-30 01:05 | 36.69324 | 3.19142 | 67 ft | 15 kts | 91° |
| 2026-04-30 01:05 | 36.69322 | 3.19270 | 64 ft | 15 kts | 91° |
| 2026-04-30 01:06 | 36.69320 | 3.19398 | 63 ft | 14 kts | 91° |
| 2026-04-30 01:06 | 36.69317 | 3.19524 | 64 ft | 15 kts | 91° |
| 2026-04-30 01:06 | 36.69314 | 3.19647 | 70 ft | 14 kts | 92° |
| 2026-04-30 01:06 | 36.69310 | 3.19764 | 70 ft | 14 kts | 92° |
| 2026-04-30 01:07 | 36.69331 | 3.19876 | 67 ft | 11 kts | 39° |
| 2026-04-30 01:07 | 36.69400 | 3.19896 | 67 ft | 10 kts | 2° |
| 2026-04-30 01:07 | 36.69471 | 3.19900 | 70 ft | 10 kts | 2° |
| 2026-04-30 01:07 | 36.69543 | 3.19903 | 63 ft | 11 kts | 1° |
| 2026-04-30 01:08 | 36.69623 | 3.19906 | 65 ft | 12 kts | 2° |
| 2026-04-30 01:08 | 36.69703 | 3.19910 | 70 ft | 11 kts | 2° |
| 2026-04-30 01:08 | 36.69751 | 3.19957 | 65 ft | 9 kts | 73° |
| 2026-04-30 01:08 | 36.69755 | 3.20028 | 63 ft | 8 kts | 89° |
| 2026-04-30 01:09 | 36.69756 | 3.20090 | 63 ft | 7 kts | 89° |
| 2026-04-30 01:09 | 36.69756 | 3.20121 | 64 ft | 0 kts | 89° |
| 2026-04-30 01:09 | 36.69756 | 3.20123 | 64 ft | 0 kts | 89° |